sensor_id;sensor_type;location;lat;lon;timestamp;P1;durP1;ratioP1;P2;durP2;ratioP2
1467;SDS011;727;48.892;9.544;2023-03-20T00:00:06;5.90;;;5.40;;
1467;SDS011;727;48.892;9.544;2023-03-20T00:02:35;7.00;;;5.45;;
1467;SDS011;727;48.892;9.544;2023-03-20T00:05:08;6.15;;;5.65;;
1467;SDS011;727;48.892;9.544;2023-03-20T00:07:45;6.72;;;5.22;;
1467;SDS011;727;48.892;9.544;2023-03-20T00:10:13;4.20;;;3.80;;
1467;SDS011;727;48.892;9.544;2023-03-20T00:12:41;5.13;;;4.55;;
1467;SDS011;727;48.892;9.544;2023-03-20T00:17:53;4.25;;;2.75;;
1467;SDS011;727;48.892;9.544;2023-03-20T00:20:20;3.78;;;2.72;;
1467;SDS011;727;48.892;9.544;2023-03-20T00:22:48;2.50;;;2.30;;
1467;SDS011;727;48.892;9.544;2023-03-20T00:25:17;2.40;;;2.20;;
1467;SDS011;727;48.892;9.544;2023-03-20T00:27:45;2.35;;;2.20;;
1467;SDS011;727;48.892;9.544;2023-03-20T00:30:20;2.55;;;2.35;;
1467;SDS011;727;48.892;9.544;2023-03-20T00:32:54;2.38;;;2.17;;
1467;SDS011;727;48.892;9.544;2023-03-20T00:35:23;2.40;;;2.20;;
1467;SDS011;727;48.892;9.544;2023-03-20T00:37:52;2.40;;;2.30;;
1467;SDS011;727;48.892;9.544;2023-03-20T00:40:21;5.40;;;2.40;;
1467;SDS011;727;48.892;9.544;2023-03-20T00:42:53;2.55;;;2.17;;
1467;SDS011;727;48.892;9.544;2023-03-20T00:45:23;2.75;;;2.55;;
1467;SDS011;727;48.892;9.544;2023-03-20T00:47:53;2.38;;;2.17;;
1467;SDS011;727;48.892;9.544;2023-03-20T00:50:22;2.10;;;1.90;;
1467;SDS011;727;48.892;9.544;2023-03-20T00:52:53;2.10;;;1.90;;
1467;SDS011;727;48.892;9.544;2023-03-20T00:55:21;2.35;;;2.25;;
1467;SDS011;727;48.892;9.544;2023-03-20T00:57:50;2.75;;;2.55;;
1467;SDS011;727;48.892;9.544;2023-03-20T01:00:21;2.70;;;2.50;;
1467;SDS011;727;48.892;9.544;2023-03-20T01:02:57;2.75;;;2.55;;
1467;SDS011;727;48.892;9.544;2023-03-20T01:05:25;2.30;;;2.20;;
1467;SDS011;727;48.892;9.544;2023-03-20T01:07:53;2.60;;;2.40;;
1467;SDS011;727;48.892;9.544;2023-03-20T01:10:20;2.60;;;2.40;;
1467;SDS011;727;48.892;9.544;2023-03-20T01:12:47;2.38;;;2.15;;
1467;SDS011;727;48.892;9.544;2023-03-20T01:15:15;1.80;;;1.70;;
1467;SDS011;727;48.892;9.544;2023-03-20T01:17:45;2.80;;;2.50;;
1467;SDS011;727;48.892;9.544;2023-03-20T01:20:15;2.85;;;2.67;;
1467;SDS011;727;48.892;9.544;2023-03-20T01:22:43;2.33;;;2.22;;
1467;SDS011;727;48.892;9.544;2023-03-20T01:25:10;2.90;;;2.60;;
1467;SDS011;727;48.892;9.544;2023-03-20T01:27:37;2.55;;;2.35;;
1467;SDS011;727;48.892;9.544;2023-03-20T01:30:09;3.10;;;2.90;;
1467;SDS011;727;48.892;9.544;2023-03-20T01:32:43;2.85;;;2.65;;
1467;SDS011;727;48.892;9.544;2023-03-20T01:35:11;2.80;;;2.35;;
1467;SDS011;727;48.892;9.544;2023-03-20T01:37:40;2.85;;;2.65;;
1467;SDS011;727;48.892;9.544;2023-03-20T01:40:10;3.92;;;2.92;;
1467;SDS011;727;48.892;9.544;2023-03-20T01:42:45;2.78;;;2.58;;
1467;SDS011;727;48.892;9.544;2023-03-20T01:45:14;2.75;;;2.55;;
1467;SDS011;727;48.892;9.544;2023-03-20T01:47:43;2.22;;;2.08;;
1467;SDS011;727;48.892;9.544;2023-03-20T01:50:20;3.15;;;2.95;;
1467;SDS011;727;48.892;9.544;2023-03-20T01:52:53;3.67;;;3.38;;
1467;SDS011;727;48.892;9.544;2023-03-20T01:55:24;5.03;;;2.63;;
1467;SDS011;727;48.892;9.544;2023-03-20T01:57:51;2.70;;;2.50;;
1467;SDS011;727;48.892;9.544;2023-03-20T02:00:21;3.22;;;2.80;;
1467;SDS011;727;48.892;9.544;2023-03-20T02:02:48;2.97;;;2.78;;
1467;SDS011;727;48.892;9.544;2023-03-20T02:05:16;2.90;;;2.60;;
1467;SDS011;727;48.892;9.544;2023-03-20T02:07:46;2.50;;;2.30;;
1467;SDS011;727;48.892;9.544;2023-03-20T02:10:22;3.03;;;2.72;;
1467;SDS011;727;48.892;9.544;2023-03-20T02:12:49;2.85;;;2.65;;
1467;SDS011;727;48.892;9.544;2023-03-20T02:15:16;3.10;;;2.85;;
1467;SDS011;727;48.892;9.544;2023-03-20T02:17:43;3.10;;;2.90;;
1467;SDS011;727;48.892;9.544;2023-03-20T02:20:13;3.15;;;2.83;;
1467;SDS011;727;48.892;9.544;2023-03-20T02:22:55;2.85;;;2.55;;
1467;SDS011;727;48.892;9.544;2023-03-20T02:25:44;3.13;;;2.92;;
1467;SDS011;727;48.892;9.544;2023-03-20T02:28:58;3.53;;;3.22;;
1467;SDS011;727;48.892;9.544;2023-03-20T02:32:07;4.25;;;3.55;;
1467;SDS011;727;48.892;9.544;2023-03-20T02:40:57;2.33;;;2.22;;
1467;SDS011;727;48.892;9.544;2023-03-20T02:43:40;3.08;;;2.88;;
1467;SDS011;727;48.892;9.544;2023-03-20T02:46:10;3.20;;;2.95;;
1467;SDS011;727;48.892;9.544;2023-03-20T02:48:46;2.78;;;2.58;;
1467;SDS011;727;48.892;9.544;2023-03-20T02:51:20;3.50;;;2.75;;
1467;SDS011;727;48.892;9.544;2023-03-20T02:53:58;4.68;;;3.38;;
1467;SDS011;727;48.892;9.544;2023-03-20T02:56:33;4.43;;;2.70;;
1467;SDS011;727;48.892;9.544;2023-03-20T02:59:11;2.40;;;2.25;;
1467;SDS011;727;48.892;9.544;2023-03-20T03:01:46;3.38;;;3.08;;
1467;SDS011;727;48.892;9.544;2023-03-20T03:04:18;2.50;;;2.30;;
1467;SDS011;727;48.892;9.544;2023-03-20T03:06:49;2.45;;;2.25;;
1467;SDS011;727;48.892;9.544;2023-03-20T03:09:21;2.60;;;2.40;;
1467;SDS011;727;48.892;9.544;2023-03-20T03:11:51;3.28;;;2.97;;
1467;SDS011;727;48.892;9.544;2023-03-20T03:14:22;3.30;;;3.10;;
1467;SDS011;727;48.892;9.544;2023-03-20T03:16:54;2.83;;;2.63;;
1467;SDS011;727;48.892;9.544;2023-03-20T03:19:23;3.05;;;2.53;;
1467;SDS011;727;48.892;9.544;2023-03-20T03:21:53;2.70;;;2.50;;
1467;SDS011;727;48.892;9.544;2023-03-20T03:24:26;2.97;;;2.78;;
1467;SDS011;727;48.892;9.544;2023-03-20T03:26:56;3.15;;;2.95;;
1467;SDS011;727;48.892;9.544;2023-03-20T03:29:26;2.90;;;2.67;;
1467;SDS011;727;48.892;9.544;2023-03-20T03:31:56;2.97;;;2.67;;
1467;SDS011;727;48.892;9.544;2023-03-20T03:34:23;3.17;;;2.88;;
1467;SDS011;727;48.892;9.544;2023-03-20T03:36:52;2.55;;;2.45;;
1467;SDS011;727;48.892;9.544;2023-03-20T03:39:29;2.97;;;2.72;;
1467;SDS011;727;48.892;9.544;2023-03-20T03:42:03;2.70;;;2.50;;
1467;SDS011;727;48.892;9.544;2023-03-20T03:44:35;3.00;;;2.65;;
1467;SDS011;727;48.892;9.544;2023-03-20T03:47:07;3.13;;;2.92;;
1467;SDS011;727;48.892;9.544;2023-03-20T03:49:38;3.78;;;3.50;;
1467;SDS011;727;48.892;9.544;2023-03-20T03:52:08;3.00;;;2.80;;
1467;SDS011;727;48.892;9.544;2023-03-20T03:54:39;2.70;;;2.50;;
1467;SDS011;727;48.892;9.544;2023-03-20T03:57:09;3.10;;;2.90;;
1467;SDS011;727;48.892;9.544;2023-03-20T03:59:38;3.28;;;2.97;;
1467;SDS011;727;48.892;9.544;2023-03-20T04:02:08;3.50;;;3.20;;
1467;SDS011;727;48.892;9.544;2023-03-20T04:04:36;3.15;;;2.95;;
1467;SDS011;727;48.892;9.544;2023-03-20T04:07:08;4.00;;;3.60;;
1467;SDS011;727;48.892;9.544;2023-03-20T04:09:35;3.33;;;3.05;;
1467;SDS011;727;48.892;9.544;2023-03-20T04:12:03;3.50;;;3.17;;
1467;SDS011;727;48.892;9.544;2023-03-20T04:14:31;4.13;;;3.70;;
1467;SDS011;727;48.892;9.544;2023-03-20T04:16:58;3.90;;;3.70;;
1467;SDS011;727;48.892;9.544;2023-03-20T04:19:24;3.55;;;3.35;;
1467;SDS011;727;48.892;9.544;2023-03-20T04:21:51;3.75;;;3.45;;
1467;SDS011;727;48.892;9.544;2023-03-20T04:24:19;3.70;;;3.40;;
1467;SDS011;727;48.892;9.544;2023-03-20T04:26:46;3.47;;;3.17;;
1467;SDS011;727;48.892;9.544;2023-03-20T04:29:14;5.43;;;3.10;;
1467;SDS011;727;48.892;9.544;2023-03-20T04:31:41;3.53;;;3.22;;
1467;SDS011;727;48.892;9.544;2023-03-20T04:34:08;4.43;;;3.13;;
1467;SDS011;727;48.892;9.544;2023-03-20T04:36:34;3.53;;;3.33;;
1467;SDS011;727;48.892;9.544;2023-03-20T04:39:01;3.90;;;3.50;;
1467;SDS011;727;48.892;9.544;2023-03-20T04:41:28;3.30;;;3.10;;
1467;SDS011;727;48.892;9.544;2023-03-20T04:43:55;5.05;;;4.35;;
1467;SDS011;727;48.892;9.544;2023-03-20T04:46:23;3.80;;;3.50;;
1467;SDS011;727;48.892;9.544;2023-03-20T04:48:50;4.50;;;4.20;;
1467;SDS011;727;48.892;9.544;2023-03-20T04:51:17;3.50;;;3.30;;
1467;SDS011;727;48.892;9.544;2023-03-20T04:53:43;3.75;;;3.45;;
1467;SDS011;727;48.892;9.544;2023-03-20T04:56:11;5.45;;;4.20;;
1467;SDS011;727;48.892;9.544;2023-03-20T04:58:38;4.40;;;4.10;;
1467;SDS011;727;48.892;9.544;2023-03-20T05:01:05;5.15;;;4.45;;
1467;SDS011;727;48.892;9.544;2023-03-20T05:03:33;4.55;;;4.25;;
1467;SDS011;727;48.892;9.544;2023-03-20T05:06:00;4.40;;;4.00;;
1467;SDS011;727;48.892;9.544;2023-03-20T05:08:27;4.95;;;4.60;;
1467;SDS011;727;48.892;9.544;2023-03-20T05:10:53;5.03;;;4.53;;
1467;SDS011;727;48.892;9.544;2023-03-20T05:13:20;5.80;;;5.28;;
1467;SDS011;727;48.892;9.544;2023-03-20T05:15:47;5.97;;;5.07;;
1467;SDS011;727;48.892;9.544;2023-03-20T05:18:14;5.28;;;4.78;;
1467;SDS011;727;48.892;9.544;2023-03-20T05:20:42;4.72;;;4.35;;
1467;SDS011;727;48.892;9.544;2023-03-20T05:23:09;5.00;;;4.60;;
1467;SDS011;727;48.892;9.544;2023-03-20T05:25:36;6.65;;;4.05;;
1467;SDS011;727;48.892;9.544;2023-03-20T05:28:02;5.25;;;4.75;;
1467;SDS011;727;48.892;9.544;2023-03-20T05:30:29;5.00;;;4.60;;
1467;SDS011;727;48.892;9.544;2023-03-20T05:32:58;5.50;;;4.95;;
1467;SDS011;727;48.892;9.544;2023-03-20T05:35:25;5.20;;;4.80;;
1467;SDS011;727;48.892;9.544;2023-03-20T05:37:53;10.45;;;4.43;;
1467;SDS011;727;48.892;9.544;2023-03-20T05:40:20;5.30;;;4.82;;
1467;SDS011;727;48.892;9.544;2023-03-20T05:42:49;5.80;;;5.15;;
1467;SDS011;727;48.892;9.544;2023-03-20T05:45:16;7.35;;;6.65;;
1467;SDS011;727;48.892;9.544;2023-03-20T05:47:45;6.05;;;5.50;;
1467;SDS011;727;48.892;9.544;2023-03-20T05:50:13;4.65;;;4.00;;
1467;SDS011;727;48.892;9.544;2023-03-20T05:52:40;6.13;;;5.60;;
1467;SDS011;727;48.892;9.544;2023-03-20T05:55:08;5.85;;;5.18;;
1467;SDS011;727;48.892;9.544;2023-03-20T05:57:35;5.90;;;5.20;;
1467;SDS011;727;48.892;9.544;2023-03-20T06:00:02;5.90;;;5.25;;
1467;SDS011;727;48.892;9.544;2023-03-20T06:02:29;6.45;;;5.88;;
1467;SDS011;727;48.892;9.544;2023-03-20T06:04:56;5.93;;;5.43;;
1467;SDS011;727;48.892;9.544;2023-03-20T06:07:23;5.47;;;4.95;;
1467;SDS011;727;48.892;9.544;2023-03-20T06:09:50;6.70;;;5.55;;
1467;SDS011;727;48.892;9.544;2023-03-20T06:12:18;7.35;;;5.55;;
1467;SDS011;727;48.892;9.544;2023-03-20T06:14:45;6.65;;;5.93;;
1467;SDS011;727;48.892;9.544;2023-03-20T06:17:11;5.10;;;4.70;;
1467;SDS011;727;48.892;9.544;2023-03-20T06:19:38;5.13;;;4.63;;
1467;SDS011;727;48.892;9.544;2023-03-20T06:22:05;5.53;;;5.03;;
1467;SDS011;727;48.892;9.544;2023-03-20T06:24:32;6.05;;;5.55;;
1467;SDS011;727;48.892;9.544;2023-03-20T06:26:59;5.95;;;5.45;;
1467;SDS011;727;48.892;9.544;2023-03-20T06:29:28;7.45;;;6.75;;
1467;SDS011;727;48.892;9.544;2023-03-20T06:31:55;6.57;;;6.07;;
1467;SDS011;727;48.892;9.544;2023-03-20T06:34:22;6.82;;;6.22;;
1467;SDS011;727;48.892;9.544;2023-03-20T06:36:48;7.40;;;6.70;;
1467;SDS011;727;48.892;9.544;2023-03-20T06:39:15;8.77;;;7.88;;
1467;SDS011;727;48.892;9.544;2023-03-20T06:41:42;7.97;;;7.15;;
1467;SDS011;727;48.892;9.544;2023-03-20T06:44:09;8.70;;;7.82;;
1467;SDS011;727;48.892;9.544;2023-03-20T06:46:38;9.70;;;6.78;;
1467;SDS011;727;48.892;9.544;2023-03-20T06:49:05;6.43;;;5.88;;
1467;SDS011;727;48.892;9.544;2023-03-20T06:51:31;7.13;;;6.53;;
1467;SDS011;727;48.892;9.544;2023-03-20T06:53:58;8.00;;;6.00;;
1467;SDS011;727;48.892;9.544;2023-03-20T06:56:25;6.80;;;6.20;;
1467;SDS011;727;48.892;9.544;2023-03-20T06:58:54;6.97;;;6.18;;
1467;SDS011;727;48.892;9.544;2023-03-20T07:01:21;6.25;;;5.60;;
1467;SDS011;727;48.892;9.544;2023-03-20T07:03:50;7.00;;;5.65;;
1467;SDS011;727;48.892;9.544;2023-03-20T07:06:16;6.78;;;5.40;;
1467;SDS011;727;48.892;9.544;2023-03-20T07:08:43;7.32;;;6.05;;
1467;SDS011;727;48.892;9.544;2023-03-20T07:11:10;5.72;;;4.75;;
1467;SDS011;727;48.892;9.544;2023-03-20T07:13:38;4.03;;;3.63;;
1467;SDS011;727;48.892;9.544;2023-03-20T07:16:06;7.25;;;5.70;;
1467;SDS011;727;48.892;9.544;2023-03-20T07:18:33;5.33;;;4.60;;
1467;SDS011;727;48.892;9.544;2023-03-20T07:21:03;6.35;;;5.60;;
1467;SDS011;727;48.892;9.544;2023-03-20T07:23:32;6.32;;;4.97;;
1467;SDS011;727;48.892;9.544;2023-03-20T07:25:59;5.25;;;4.75;;
1467;SDS011;727;48.892;9.544;2023-03-20T07:28:27;7.65;;;5.05;;
1467;SDS011;727;48.892;9.544;2023-03-20T07:30:55;5.53;;;5.03;;
1467;SDS011;727;48.892;9.544;2023-03-20T07:33:22;3.93;;;3.63;;
1467;SDS011;727;48.892;9.544;2023-03-20T07:35:50;5.97;;;4.60;;
1467;SDS011;727;48.892;9.544;2023-03-20T07:38:20;7.30;;;3.50;;
1467;SDS011;727;48.892;9.544;2023-03-20T07:40:47;2.80;;;2.60;;
1467;SDS011;727;48.892;9.544;2023-03-20T07:43:14;2.88;;;2.63;;
1467;SDS011;727;48.892;9.544;2023-03-20T07:45:41;5.77;;;4.57;;
1467;SDS011;727;48.892;9.544;2023-03-20T07:48:09;4.00;;;3.30;;
1467;SDS011;727;48.892;9.544;2023-03-20T07:50:36;3.40;;;2.90;;
1467;SDS011;727;48.892;9.544;2023-03-20T07:53:02;6.65;;;2.67;;
1467;SDS011;727;48.892;9.544;2023-03-20T07:55:31;2.00;;;1.90;;
1467;SDS011;727;48.892;9.544;2023-03-20T07:58:00;3.07;;;2.77;;
1467;SDS011;727;48.892;9.544;2023-03-20T08:00:27;2.03;;;1.92;;
1467;SDS011;727;48.892;9.544;2023-03-20T08:02:55;2.73;;;2.17;;
1467;SDS011;727;48.892;9.544;2023-03-20T08:05:22;2.67;;;2.47;;
1467;SDS011;727;48.892;9.544;2023-03-20T08:07:49;7.37;;;2.37;;
1467;SDS011;727;48.892;9.544;2023-03-20T08:10:17;5.20;;;2.73;;
1467;SDS011;727;48.892;9.544;2023-03-20T08:12:46;5.10;;;1.90;;
1467;SDS011;727;48.892;9.544;2023-03-20T08:15:13;2.80;;;2.60;;
1467;SDS011;727;48.892;9.544;2023-03-20T08:17:41;2.67;;;2.47;;
1467;SDS011;727;48.892;9.544;2023-03-20T08:20:09;3.87;;;3.47;;
1467;SDS011;727;48.892;9.544;2023-03-20T08:22:37;3.30;;;2.10;;
1467;SDS011;727;48.892;9.544;2023-03-20T08:25:04;2.70;;;1.90;;
1467;SDS011;727;48.892;9.544;2023-03-20T08:27:32;6.40;;;1.80;;
1467;SDS011;727;48.892;9.544;2023-03-20T08:30:00;2.00;;;1.90;;
1467;SDS011;727;48.892;9.544;2023-03-20T08:32:27;16.10;;;10.23;;
1467;SDS011;727;48.892;9.544;2023-03-20T08:34:54;2.77;;;2.10;;
1467;SDS011;727;48.892;9.544;2023-03-20T08:37:21;2.63;;;2.23;;
1467;SDS011;727;48.892;9.544;2023-03-20T08:39:48;2.97;;;2.70;;
1467;SDS011;727;48.892;9.544;2023-03-20T08:42:16;3.53;;;2.20;;
1467;SDS011;727;48.892;9.544;2023-03-20T08:44:43;1.90;;;1.80;;
1467;SDS011;727;48.892;9.544;2023-03-20T08:47:11;8.20;;;2.50;;
1467;SDS011;727;48.892;9.544;2023-03-20T08:49:40;10.03;;;6.13;;
1467;SDS011;727;48.892;9.544;2023-03-20T08:52:07;3.53;;;3.23;;
1467;SDS011;727;48.892;9.544;2023-03-20T08:54:34;5.20;;;4.27;;
1467;SDS011;727;48.892;9.544;2023-03-20T08:57:01;3.10;;;2.90;;
1467;SDS011;727;48.892;9.544;2023-03-20T08:59:28;1.67;;;1.57;;
1467;SDS011;727;48.892;9.544;2023-03-20T09:01:55;2.90;;;2.70;;
1467;SDS011;727;48.892;9.544;2023-03-20T09:04:23;2.20;;;1.90;;
1467;SDS011;727;48.892;9.544;2023-03-20T09:06:50;2.00;;;1.80;;
1467;SDS011;727;48.892;9.544;2023-03-20T09:09:17;1.33;;;1.23;;
1467;SDS011;727;48.892;9.544;2023-03-20T09:11:50;3.10;;;1.60;;
1467;SDS011;727;48.892;9.544;2023-03-20T09:14:18;1.67;;;1.40;;
1467;SDS011;727;48.892;9.544;2023-03-20T09:16:48;1.33;;;1.23;;
1467;SDS011;727;48.892;9.544;2023-03-20T09:19:16;1.83;;;1.73;;
1467;SDS011;727;48.892;9.544;2023-03-20T09:21:45;2.40;;;2.20;;
1467;SDS011;727;48.892;9.544;2023-03-20T09:24:12;2.43;;;1.60;;
1467;SDS011;727;48.892;9.544;2023-03-20T09:26:40;2.90;;;1.80;;
1467;SDS011;727;48.892;9.544;2023-03-20T09:29:07;2.43;;;2.20;;
1467;SDS011;727;48.892;9.544;2023-03-20T09:31:33;2.80;;;2.60;;
1467;SDS011;727;48.892;9.544;2023-03-20T09:34:00;2.90;;;2.00;;
1467;SDS011;727;48.892;9.544;2023-03-20T09:36:29;3.10;;;2.00;;
1467;SDS011;727;48.892;9.544;2023-03-20T09:38:57;2.50;;;1.97;;
1467;SDS011;727;48.892;9.544;2023-03-20T09:41:24;2.60;;;1.90;;
1467;SDS011;727;48.892;9.544;2023-03-20T09:43:58;1.63;;;1.50;;
1467;SDS011;727;48.892;9.544;2023-03-20T09:46:39;2.63;;;1.93;;
1467;SDS011;727;48.892;9.544;2023-03-20T09:49:27;3.63;;;2.27;;
1467;SDS011;727;48.892;9.544;2023-03-20T09:52:02;2.10;;;2.00;;
1467;SDS011;727;48.892;9.544;2023-03-20T09:54:37;1.93;;;1.83;;
1467;SDS011;727;48.892;9.544;2023-03-20T09:57:08;2.97;;;2.77;;
1467;SDS011;727;48.892;9.544;2023-03-20T09:59:43;2.97;;;2.73;;
1467;SDS011;727;48.892;9.544;2023-03-20T10:02:11;2.67;;;2.47;;
1467;SDS011;727;48.892;9.544;2023-03-20T10:04:43;3.53;;;2.80;;
1467;SDS011;727;48.892;9.544;2023-03-20T10:07:13;2.50;;;2.30;;
1467;SDS011;727;48.892;9.544;2023-03-20T10:09:44;2.13;;;1.93;;
1467;SDS011;727;48.892;9.544;2023-03-20T10:15:06;4.93;;;3.10;;
1467;SDS011;727;48.892;9.544;2023-03-20T10:17:43;2.10;;;1.97;;
1467;SDS011;727;48.892;9.544;2023-03-20T10:20:24;3.43;;;1.60;;
1467;SDS011;727;48.892;9.544;2023-03-20T10:22:56;2.57;;;2.23;;
1467;SDS011;727;48.892;9.544;2023-03-20T10:25:29;2.60;;;2.40;;
1467;SDS011;727;48.892;9.544;2023-03-20T10:27:58;2.10;;;1.90;;
1467;SDS011;727;48.892;9.544;2023-03-20T10:30:29;2.37;;;2.17;;
1467;SDS011;727;48.892;9.544;2023-03-20T10:33:08;3.40;;;2.60;;
1467;SDS011;727;48.892;9.544;2023-03-20T10:35:43;3.23;;;3.03;;
1467;SDS011;727;48.892;9.544;2023-03-20T10:38:21;5.43;;;2.33;;
1467;SDS011;727;48.892;9.544;2023-03-20T10:40:57;2.17;;;2.07;;
1467;SDS011;727;48.892;9.544;2023-03-20T10:43:25;7.47;;;2.63;;
1467;SDS011;727;48.892;9.544;2023-03-20T10:45:58;2.30;;;2.10;;
1467;SDS011;727;48.892;9.544;2023-03-20T10:48:29;2.10;;;2.00;;
1467;SDS011;727;48.892;9.544;2023-03-20T10:50:59;4.80;;;3.03;;
1467;SDS011;727;48.892;9.544;2023-03-20T10:53:29;3.77;;;2.60;;
1467;SDS011;727;48.892;9.544;2023-03-20T10:56:03;4.27;;;3.27;;
1467;SDS011;727;48.892;9.544;2023-03-20T10:58:34;5.10;;;2.43;;
1467;SDS011;727;48.892;9.544;2023-03-20T11:01:04;5.90;;;2.90;;
1467;SDS011;727;48.892;9.544;2023-03-20T11:03:31;3.13;;;2.83;;
1467;SDS011;727;48.892;9.544;2023-03-20T11:06:03;2.77;;;2.57;;
1467;SDS011;727;48.892;9.544;2023-03-20T11:08:34;3.73;;;2.73;;
1467;SDS011;727;48.892;9.544;2023-03-20T11:11:04;2.97;;;2.77;;
1467;SDS011;727;48.892;9.544;2023-03-20T11:13:31;5.23;;;2.70;;
1467;SDS011;727;48.892;9.544;2023-03-20T11:16:10;3.83;;;2.97;;
1467;SDS011;727;48.892;9.544;2023-03-20T11:18:43;3.80;;;3.00;;
1467;SDS011;727;48.892;9.544;2023-03-20T11:21:13;5.30;;;2.77;;
1467;SDS011;727;48.892;9.544;2023-03-20T11:23:43;3.20;;;2.77;;
1467;SDS011;727;48.892;9.544;2023-03-20T11:26:12;2.53;;;2.33;;
1467;SDS011;727;48.892;9.544;2023-03-20T11:28:41;2.43;;;2.23;;
1467;SDS011;727;48.892;9.544;2023-03-20T11:31:17;3.60;;;2.63;;
1467;SDS011;727;48.892;9.544;2023-03-20T11:33:50;2.90;;;2.60;;
1467;SDS011;727;48.892;9.544;2023-03-20T11:36:20;3.77;;;3.53;;
1467;SDS011;727;48.892;9.544;2023-03-20T11:38:49;5.33;;;3.93;;
1467;SDS011;727;48.892;9.544;2023-03-20T11:41:21;4.57;;;4.17;;
1467;SDS011;727;48.892;9.544;2023-03-20T11:43:50;4.50;;;4.10;;
1467;SDS011;727;48.892;9.544;2023-03-20T11:46:17;5.03;;;4.40;;
1467;SDS011;727;48.892;9.544;2023-03-20T11:48:59;5.40;;;4.80;;
1467;SDS011;727;48.892;9.544;2023-03-20T11:51:28;3.77;;;3.37;;
1467;SDS011;727;48.892;9.544;2023-03-20T11:53:59;4.00;;;3.60;;
1467;SDS011;727;48.892;9.544;2023-03-20T11:56:29;7.23;;;3.73;;
1467;SDS011;727;48.892;9.544;2023-03-20T11:58:57;5.57;;;4.03;;
1467;SDS011;727;48.892;9.544;2023-03-20T12:01:27;5.03;;;4.50;;
1467;SDS011;727;48.892;9.544;2023-03-20T12:04:02;6.10;;;4.60;;
1467;SDS011;727;48.892;9.544;2023-03-20T12:06:38;4.37;;;3.97;;
1467;SDS011;727;48.892;9.544;2023-03-20T12:09:11;6.00;;;4.93;;
1467;SDS011;727;48.892;9.544;2023-03-20T12:11:50;5.63;;;5.10;;
1467;SDS011;727;48.892;9.544;2023-03-20T12:14:24;6.90;;;5.43;;
1467;SDS011;727;48.892;9.544;2023-03-20T12:16:56;6.87;;;5.10;;
1467;SDS011;727;48.892;9.544;2023-03-20T12:19:42;6.43;;;4.50;;
1467;SDS011;727;48.892;9.544;2023-03-20T12:22:13;9.47;;;5.57;;
1467;SDS011;727;48.892;9.544;2023-03-20T12:24:48;9.13;;;5.00;;
1467;SDS011;727;48.892;9.544;2023-03-20T12:27:22;7.83;;;5.30;;
1467;SDS011;727;48.892;9.544;2023-03-20T12:29:54;8.37;;;5.33;;
1467;SDS011;727;48.892;9.544;2023-03-20T12:32:26;6.47;;;5.60;;
1467;SDS011;727;48.892;9.544;2023-03-20T12:34:57;6.03;;;5.37;;
1467;SDS011;727;48.892;9.544;2023-03-20T12:37:30;6.13;;;5.53;;
1467;SDS011;727;48.892;9.544;2023-03-20T12:39:58;7.23;;;4.83;;
1467;SDS011;727;48.892;9.544;2023-03-20T12:42:33;5.07;;;4.57;;
1467;SDS011;727;48.892;9.544;2023-03-20T12:45:11;6.13;;;5.03;;
1467;SDS011;727;48.892;9.544;2023-03-20T12:50:54;7.83;;;5.10;;
1467;SDS011;727;48.892;9.544;2023-03-20T12:53:32;6.43;;;5.00;;
1467;SDS011;727;48.892;9.544;2023-03-20T12:56:07;5.83;;;4.50;;
1467;SDS011;727;48.892;9.544;2023-03-20T12:58:49;5.60;;;5.10;;
1467;SDS011;727;48.892;9.544;2023-03-20T13:01:24;4.80;;;4.40;;
1467;SDS011;727;48.892;9.544;2023-03-20T13:03:58;5.30;;;4.70;;
1467;SDS011;727;48.892;9.544;2023-03-20T13:06:49;4.60;;;4.07;;
1467;SDS011;727;48.892;9.544;2023-03-20T13:09:32;5.77;;;5.20;;
1467;SDS011;727;48.892;9.544;2023-03-20T13:12:09;8.50;;;5.40;;
1467;SDS011;727;48.892;9.544;2023-03-20T13:14:49;6.50;;;4.97;;
1467;SDS011;727;48.892;9.544;2023-03-20T13:17:21;6.60;;;5.90;;
1467;SDS011;727;48.892;9.544;2023-03-20T13:19:56;5.77;;;5.27;;
1467;SDS011;727;48.892;9.544;2023-03-20T13:22:41;6.33;;;5.73;;
1467;SDS011;727;48.892;9.544;2023-03-20T13:25:17;7.00;;;5.07;;
1467;SDS011;727;48.892;9.544;2023-03-20T13:27:58;6.60;;;5.10;;
1467;SDS011;727;48.892;9.544;2023-03-20T13:30:34;5.10;;;4.60;;
1467;SDS011;727;48.892;9.544;2023-03-20T13:33:18;6.40;;;5.80;;
1467;SDS011;727;48.892;9.544;2023-03-20T13:35:56;7.40;;;5.87;;
1467;SDS011;727;48.892;9.544;2023-03-20T13:38:32;7.80;;;5.17;;
1467;SDS011;727;48.892;9.544;2023-03-20T13:41:02;6.90;;;4.80;;
1467;SDS011;727;48.892;9.544;2023-03-20T13:43:34;8.07;;;3.90;;
1467;SDS011;727;48.892;9.544;2023-03-20T13:46:08;7.40;;;5.20;;
1467;SDS011;727;48.892;9.544;2023-03-20T13:48:37;7.97;;;5.57;;
1467;SDS011;727;48.892;9.544;2023-03-20T13:51:08;10.60;;;4.77;;
1467;SDS011;727;48.892;9.544;2023-03-20T13:53:43;7.60;;;4.83;;
1467;SDS011;727;48.892;9.544;2023-03-20T13:56:21;4.67;;;4.10;;
1467;SDS011;727;48.892;9.544;2023-03-20T13:59:00;5.00;;;3.80;;
1467;SDS011;727;48.892;9.544;2023-03-20T14:01:42;4.70;;;4.30;;
1467;SDS011;727;48.892;9.544;2023-03-20T14:04:16;4.40;;;3.93;;
1467;SDS011;727;48.892;9.544;2023-03-20T14:06:48;5.03;;;4.20;;
1467;SDS011;727;48.892;9.544;2023-03-20T14:12:06;6.93;;;4.73;;
1467;SDS011;727;48.892;9.544;2023-03-20T14:14:39;7.37;;;4.93;;
1467;SDS011;727;48.892;9.544;2023-03-20T14:17:13;7.57;;;4.00;;
1467;SDS011;727;48.892;9.544;2023-03-20T14:19:43;6.93;;;4.83;;
1467;SDS011;727;48.892;9.544;2023-03-20T14:22:14;6.43;;;5.27;;
1467;SDS011;727;48.892;9.544;2023-03-20T14:24:45;4.97;;;4.47;;
1467;SDS011;727;48.892;9.544;2023-03-20T14:27:23;5.00;;;4.50;;
1467;SDS011;727;48.892;9.544;2023-03-20T14:29:53;7.43;;;4.77;;
1467;SDS011;727;48.892;9.544;2023-03-20T14:32:23;8.00;;;4.90;;
1467;SDS011;727;48.892;9.544;2023-03-20T14:34:59;5.90;;;3.80;;
1467;SDS011;727;48.892;9.544;2023-03-20T14:37:55;7.27;;;4.93;;
1467;SDS011;727;48.892;9.544;2023-03-20T14:40:37;4.93;;;4.53;;
1467;SDS011;727;48.892;9.544;2023-03-20T14:43:14;5.90;;;4.93;;
1467;SDS011;727;48.892;9.544;2023-03-20T14:45:46;17.90;;;6.00;;
1467;SDS011;727;48.892;9.544;2023-03-20T14:48:26;6.70;;;4.47;;
1467;SDS011;727;48.892;9.544;2023-03-20T14:51:02;4.77;;;4.27;;
1467;SDS011;727;48.892;9.544;2023-03-20T14:53:49;11.10;;;5.60;;
1467;SDS011;727;48.892;9.544;2023-03-20T14:56:24;6.67;;;4.87;;
1467;SDS011;727;48.892;9.544;2023-03-20T14:58:58;10.73;;;4.93;;
1467;SDS011;727;48.892;9.544;2023-03-20T15:01:44;5.53;;;4.43;;
1467;SDS011;727;48.892;9.544;2023-03-20T15:04:21;5.80;;;4.50;;
1467;SDS011;727;48.892;9.544;2023-03-20T15:06:55;10.23;;;5.10;;
1467;SDS011;727;48.892;9.544;2023-03-20T15:09:25;5.13;;;4.57;;
1467;SDS011;727;48.892;9.544;2023-03-20T15:11:54;5.00;;;3.80;;
1467;SDS011;727;48.892;9.544;2023-03-20T15:14:28;5.43;;;4.40;;
1467;SDS011;727;48.892;9.544;2023-03-20T15:17:00;4.60;;;4.20;;
1467;SDS011;727;48.892;9.544;2023-03-20T15:19:30;7.00;;;4.70;;
1467;SDS011;727;48.892;9.544;2023-03-20T15:21:57;4.33;;;3.93;;
1467;SDS011;727;48.892;9.544;2023-03-20T15:24:26;5.20;;;4.23;;
1467;SDS011;727;48.892;9.544;2023-03-20T15:26:54;5.10;;;3.77;;
1467;SDS011;727;48.892;9.544;2023-03-20T15:29:24;4.93;;;3.70;;
1467;SDS011;727;48.892;9.544;2023-03-20T15:31:53;9.07;;;4.10;;
1467;SDS011;727;48.892;9.544;2023-03-20T15:34:22;3.87;;;3.47;;
1467;SDS011;727;48.892;9.544;2023-03-20T15:36:53;4.73;;;4.30;;
1467;SDS011;727;48.892;9.544;2023-03-20T15:39:22;9.70;;;3.53;;
1467;SDS011;727;48.892;9.544;2023-03-20T15:41:51;7.53;;;4.70;;
1467;SDS011;727;48.892;9.544;2023-03-20T15:44:20;5.53;;;4.27;;
1467;SDS011;727;48.892;9.544;2023-03-20T15:46:49;4.47;;;3.93;;
1467;SDS011;727;48.892;9.544;2023-03-20T15:49:17;4.07;;;3.63;;
1467;SDS011;727;48.892;9.544;2023-03-20T15:51:45;6.27;;;4.30;;
1467;SDS011;727;48.892;9.544;2023-03-20T15:54:14;7.40;;;4.30;;
1467;SDS011;727;48.892;9.544;2023-03-20T15:56:43;6.33;;;4.50;;
1467;SDS011;727;48.892;9.544;2023-03-20T15:59:12;3.73;;;3.33;;
1467;SDS011;727;48.892;9.544;2023-03-20T16:01:41;3.97;;;3.60;;
1467;SDS011;727;48.892;9.544;2023-03-20T16:04:09;5.27;;;4.03;;
1467;SDS011;727;48.892;9.544;2023-03-20T16:06:43;6.37;;;3.40;;
1467;SDS011;727;48.892;9.544;2023-03-20T16:09:14;6.60;;;3.20;;